sensor_id;sensor_type;location;lat;lon;timestamp;temperature;humidity
21770;DHT22;11046;49.558;8.674;2023-10-13T06:59:36;16.50;99.90
21770;DHT22;11046;49.558;8.674;2023-10-13T07:02:41;16.60;99.90
21770;DHT22;11046;49.558;8.674;2023-10-13T07:05:44;16.70;99.90
21770;DHT22;11046;49.558;8.674;2023-10-13T07:08:48;16.90;99.60
21770;DHT22;11046;49.558;8.674;2023-10-13T07:11:52;17.00;98.90
21770;DHT22;11046;49.558;8.674;2023-10-13T07:14:53;17.20;98.40
21770;DHT22;11046;49.558;8.674;2023-10-13T07:18:15;17.40;97.90
21770;DHT22;11046;49.558;8.674;2023-10-13T07:21:18;17.60;97.40
21770;DHT22;11046;49.558;8.674;2023-10-13T07:24:28;17.80;97.10
21770;DHT22;11046;49.558;8.674;2023-10-13T07:27:32;18.10;96.60
21770;DHT22;11046;49.558;8.674;2023-10-13T07:30:36;18.30;96.10
21770;DHT22;11046;49.558;8.674;2023-10-13T07:33:49;18.60;95.70
21770;DHT22;11046;49.558;8.674;2023-10-13T07:36:52;18.80;95.40
21770;DHT22;11046;49.558;8.674;2023-10-13T07:39:53;19.00;94.80
21770;DHT22;11046;49.558;8.674;2023-10-13T07:42:58;19.20;94.20
21770;DHT22;11046;49.558;8.674;2023-10-13T07:46:01;19.40;93.60
21770;DHT22;11046;49.558;8.674;2023-10-13T07:49:09;19.50;93.20
21770;DHT22;11046;49.558;8.674;2023-10-13T07:52:12;19.70;93.20
21770;DHT22;11046;49.558;8.674;2023-10-13T07:55:36;19.90;92.80
21770;DHT22;11046;49.558;8.674;2023-10-13T07:58:39;20.20;92.30
21770;DHT22;11046;49.558;8.674;2023-10-13T08:01:59;20.40;91.70
21770;DHT22;11046;49.558;8.674;2023-10-13T08:05:12;20.70;91.50
21770;DHT22;11046;49.558;8.674;2023-10-13T08:08:16;20.90;90.80
21770;DHT22;11046;49.558;8.674;2023-10-13T08:11:17;21.10;90.50
21770;DHT22;11046;49.558;8.674;2023-10-13T08:14:24;21.30;89.50
21770;DHT22;11046;49.558;8.674;2023-10-13T08:17:29;21.20;89.00
21770;DHT22;11046;49.558;8.674;2023-10-13T08:20:31;21.30;89.00
21770;DHT22;11046;49.558;8.674;2023-10-13T08:23:38;21.50;87.60
21770;DHT22;11046;49.558;8.674;2023-10-13T08:26:54;21.70;86.50
21770;DHT22;11046;49.558;8.674;2023-10-13T08:29:58;21.70;85.30
21770;DHT22;11046;49.558;8.674;2023-10-13T08:32:59;21.60;85.00
21770;DHT22;11046;49.558;8.674;2023-10-13T08:36:00;21.70;84.90
21770;DHT22;11046;49.558;8.674;2023-10-13T08:39:26;21.90;83.30
21770;DHT22;11046;49.558;8.674;2023-10-13T08:42:45;22.10;82.10
21770;DHT22;11046;49.558;8.674;2023-10-13T08:45:46;22.40;81.30
21770;DHT22;11046;49.558;8.674;2023-10-13T08:48:47;22.50;79.90
21770;DHT22;11046;49.558;8.674;2023-10-13T08:51:49;22.70;79.20
21770;DHT22;11046;49.558;8.674;2023-10-13T08:54:50;22.80;77.70
21770;DHT22;11046;49.558;8.674;2023-10-13T08:58:03;22.80;77.80
21770;DHT22;11046;49.558;8.674;2023-10-13T09:01:13;22.90;76.60
21770;DHT22;11046;49.558;8.674;2023-10-13T09:04:34;22.90;75.70
21770;DHT22;11046;49.558;8.674;2023-10-13T09:07:45;23.10;75.90
21770;DHT22;11046;49.558;8.674;2023-10-13T09:10:47;23.30;73.90
21770;DHT22;11046;49.558;8.674;2023-10-13T09:14:13;23.30;73.50
21770;DHT22;11046;49.558;8.674;2023-10-13T09:17:41;23.30;72.40
21770;DHT22;11046;49.558;8.674;2023-10-13T09:20:59;23.40;72.70
21770;DHT22;11046;49.558;8.674;2023-10-13T09:24:20;23.50;72.30
21770;DHT22;11046;49.558;8.674;2023-10-13T09:27:32;23.60;71.80
21770;DHT22;11046;49.558;8.674;2023-10-13T09:30:33;23.80;71.10
21770;DHT22;11046;49.558;8.674;2023-10-13T09:33:36;23.80;71.20
21770;DHT22;11046;49.558;8.674;2023-10-13T09:36:37;23.90;69.30
21770;DHT22;11046;49.558;8.674;2023-10-13T09:39:38;23.80;68.50
21770;DHT22;11046;49.558;8.674;2023-10-13T09:42:42;23.80;68.60
21770;DHT22;11046;49.558;8.674;2023-10-13T09:45:42;23.80;68.20
21770;DHT22;11046;49.558;8.674;2023-10-13T09:48:49;23.90;68.40
21770;DHT22;11046;49.558;8.674;2023-10-13T09:52:04;24.10;67.10
21770;DHT22;11046;49.558;8.674;2023-10-13T09:55:21;24.20;67.00
21770;DHT22;11046;49.558;8.674;2023-10-13T09:58:29;24.30;67.00
21770;DHT22;11046;49.558;8.674;2023-10-13T10:01:40;24.40;66.50
21770;DHT22;11046;49.558;8.674;2023-10-13T10:04:54;24.40;65.60
21770;DHT22;11046;49.558;8.674;2023-10-13T10:07:59;24.50;65.40
21770;DHT22;11046;49.558;8.674;2023-10-13T10:17:48;24.90;63.70
21770;DHT22;11046;49.558;8.674;2023-10-13T10:20:50;25.00;64.90
21770;DHT22;11046;49.558;8.674;2023-10-13T10:23:55;25.00;64.50
21770;DHT22;11046;49.558;8.674;2023-10-13T10:26:56;25.00;64.10
21770;DHT22;11046;49.558;8.674;2023-10-13T10:29:57;25.10;64.10
21770;DHT22;11046;49.558;8.674;2023-10-13T10:32:58;25.30;64.20
21770;DHT22;11046;49.558;8.674;2023-10-13T10:36:00;25.60;63.60
21770;DHT22;11046;49.558;8.674;2023-10-13T10:39:01;25.70;62.30
21770;DHT22;11046;49.558;8.674;2023-10-13T10:42:12;25.70;61.80
21770;DHT22;11046;49.558;8.674;2023-10-13T10:45:17;25.80;61.50
21770;DHT22;11046;49.558;8.674;2023-10-13T10:48:22;25.90;62.00
21770;DHT22;11046;49.558;8.674;2023-10-13T10:51:33;25.90;61.50
21770;DHT22;11046;49.558;8.674;2023-10-13T10:54:34;25.70;60.60
21770;DHT22;11046;49.558;8.674;2023-10-13T10:57:34;25.60;60.40
21770;DHT22;11046;49.558;8.674;2023-10-13T11:00:38;25.60;60.90
21770;DHT22;11046;49.558;8.674;2023-10-13T11:03:59;25.60;61.40
21770;DHT22;11046;49.558;8.674;2023-10-13T11:07:00;25.60;61.10
21770;DHT22;11046;49.558;8.674;2023-10-13T11:10:10;25.70;61.30
21770;DHT22;11046;49.558;8.674;2023-10-13T11:13:41;25.90;59.20
21770;DHT22;11046;49.558;8.674;2023-10-13T11:16:49;25.90;59.10
21770;DHT22;11046;49.558;8.674;2023-10-13T11:20:08;25.90;60.00
21770;DHT22;11046;49.558;8.674;2023-10-13T11:23:16;25.80;59.70
21770;DHT22;11046;49.558;8.674;2023-10-13T11:26:17;25.80;58.90
21770;DHT22;11046;49.558;8.674;2023-10-13T11:29:19;25.80;60.00
21770;DHT22;11046;49.558;8.674;2023-10-13T11:32:20;25.80;59.50
21770;DHT22;11046;49.558;8.674;2023-10-13T11:35:21;25.80;59.10
21770;DHT22;11046;49.558;8.674;2023-10-13T11:38:24;25.70;58.80
21770;DHT22;11046;49.558;8.674;2023-10-13T11:41:26;25.80;59.70
21770;DHT22;11046;49.558;8.674;2023-10-13T11:44:34;25.80;59.60
21770;DHT22;11046;49.558;8.674;2023-10-13T11:47:43;25.90;58.80
21770;DHT22;11046;49.558;8.674;2023-10-13T11:51:01;25.80;58.70
21770;DHT22;11046;49.558;8.674;2023-10-13T11:54:02;25.70;58.80
21770;DHT22;11046;49.558;8.674;2023-10-13T11:57:03;25.70;58.90
21770;DHT22;11046;49.558;8.674;2023-10-13T12:00:04;25.70;58.70
21770;DHT22;11046;49.558;8.674;2023-10-13T12:03:27;25.50;58.40
21770;DHT22;11046;49.558;8.674;2023-10-13T12:06:46;25.60;58.80
21770;DHT22;11046;49.558;8.674;2023-10-13T12:10:03;25.60;58.70
21770;DHT22;11046;49.558;8.674;2023-10-13T12:13:06;25.70;58.70
21770;DHT22;11046;49.558;8.674;2023-10-13T12:16:08;25.70;59.10
21770;DHT22;11046;49.558;8.674;2023-10-13T12:19:10;25.90;59.70
21770;DHT22;11046;49.558;8.674;2023-10-13T12:22:11;26.10;58.70
21770;DHT22;11046;49.558;8.674;2023-10-13T12:25:17;26.20;58.00
21770;DHT22;11046;49.558;8.674;2023-10-13T12:28:33;26.20;58.30
21770;DHT22;11046;49.558;8.674;2023-10-13T12:31:42;26.20;57.80
21770;DHT22;11046;49.558;8.674;2023-10-13T12:34:51;26.20;57.70
21770;DHT22;11046;49.558;8.674;2023-10-13T12:38:16;26.10;57.90
21770;DHT22;11046;49.558;8.674;2023-10-13T12:41:37;25.90;58.00
21770;DHT22;11046;49.558;8.674;2023-10-13T12:44:56;25.80;57.70
21770;DHT22;11046;49.558;8.674;2023-10-13T12:48:29;25.80;57.90
21770;DHT22;11046;49.558;8.674;2023-10-13T12:51:49;25.70;58.00
21770;DHT22;11046;49.558;8.674;2023-10-13T12:54:53;25.70;58.10
21770;DHT22;11046;49.558;8.674;2023-10-13T12:57:56;25.60;58.00
21770;DHT22;11046;49.558;8.674;2023-10-13T13:01:00;25.50;57.90
21770;DHT22;11046;49.558;8.674;2023-10-13T13:04:06;25.50;57.60
21770;DHT22;11046;49.558;8.674;2023-10-13T13:07:12;25.60;58.30
21770;DHT22;11046;49.558;8.674;2023-10-13T13:10:17;25.80;58.30
21770;DHT22;11046;49.558;8.674;2023-10-13T13:13:17;25.80;58.00
21770;DHT22;11046;49.558;8.674;2023-10-13T13:16:24;25.90;57.90
21770;DHT22;11046;49.558;8.674;2023-10-13T13:19:25;26.00;57.40
21770;DHT22;11046;49.558;8.674;2023-10-13T13:22:26;26.00;57.20
21770;DHT22;11046;49.558;8.674;2023-10-13T13:25:28;26.10;56.30
21770;DHT22;11046;49.558;8.674;2023-10-13T13:28:31;26.20;56.60
21770;DHT22;11046;49.558;8.674;2023-10-13T13:31:38;26.30;56.70
21770;DHT22;11046;49.558;8.674;2023-10-13T13:34:43;26.40;56.50
21770;DHT22;11046;49.558;8.674;2023-10-13T13:37:43;26.50;56.50
21770;DHT22;11046;49.558;8.674;2023-10-13T13:40:44;26.60;55.80
21770;DHT22;11046;49.558;8.674;2023-10-13T13:43:50;26.60;55.30
21770;DHT22;11046;49.558;8.674;2023-10-13T13:46:50;26.50;55.30
21770;DHT22;11046;49.558;8.674;2023-10-13T13:49:52;26.40;55.90
21770;DHT22;11046;49.558;8.674;2023-10-13T13:52:56;26.30;56.10
21770;DHT22;11046;49.558;8.674;2023-10-13T13:56:02;26.30;55.60
21770;DHT22;11046;49.558;8.674;2023-10-13T13:59:03;26.40;55.50
21770;DHT22;11046;49.558;8.674;2023-10-13T14:02:07;26.60;55.70
21770;DHT22;11046;49.558;8.674;2023-10-13T14:05:20;26.70;54.80
21770;DHT22;11046;49.558;8.674;2023-10-13T14:08:20;26.70;54.80
21770;DHT22;11046;49.558;8.674;2023-10-13T14:11:24;26.60;54.60
21770;DHT22;11046;49.558;8.674;2023-10-13T14:14:40;26.60;55.10
21770;DHT22;11046;49.558;8.674;2023-10-13T14:17:48;26.60;54.80
21770;DHT22;11046;49.558;8.674;2023-10-13T14:20:49;26.40;55.10
21770;DHT22;11046;49.558;8.674;2023-10-13T14:23:51;26.40;55.00
21770;DHT22;11046;49.558;8.674;2023-10-13T14:26:57;26.30;55.10
21770;DHT22;11046;49.558;8.674;2023-10-13T14:30:53;26.40;54.80
21770;DHT22;11046;49.558;8.674;2023-10-13T14:33:54;26.30;55.20
21770;DHT22;11046;49.558;8.674;2023-10-13T14:36:54;26.20;55.20
21770;DHT22;11046;49.558;8.674;2023-10-13T14:39:56;26.30;55.30
21770;DHT22;11046;49.558;8.674;2023-10-13T14:43:00;26.20;55.10
21770;DHT22;11046;49.558;8.674;2023-10-13T14:46:01;26.20;55.00
21770;DHT22;11046;49.558;8.674;2023-10-13T14:49:02;26.10;55.40
21770;DHT22;11046;49.558;8.674;2023-10-13T14:52:03;26.20;55.70
21770;DHT22;11046;49.558;8.674;2023-10-13T14:55:04;26.10;55.90
21770;DHT22;11046;49.558;8.674;2023-10-13T14:58:07;26.00;56.00
21770;DHT22;11046;49.558;8.674;2023-10-13T15:01:15;25.90;55.90
21770;DHT22;11046;49.558;8.674;2023-10-13T15:04:16;25.90;56.00
21770;DHT22;11046;49.558;8.674;2023-10-13T15:07:17;25.80;56.00
21770;DHT22;11046;49.558;8.674;2023-10-13T15:10:18;25.80;56.00
21770;DHT22;11046;49.558;8.674;2023-10-13T15:13:19;25.70;56.20
21770;DHT22;11046;49.558;8.674;2023-10-13T15:16:21;25.60;56.00
21770;DHT22;11046;49.558;8.674;2023-10-13T15:19:22;25.70;56.10
21770;DHT22;11046;49.558;8.674;2023-10-13T15:22:23;25.60;55.50
21770;DHT22;11046;49.558;8.674;2023-10-13T15:25:28;25.50;55.30
21770;DHT22;11046;49.558;8.674;2023-10-13T15:28:29;25.50;55.20
21770;DHT22;11046;49.558;8.674;2023-10-13T15:31:31;25.40;54.90
21770;DHT22;11046;49.558;8.674;2023-10-13T15:34:32;25.40;54.70
21770;DHT22;11046;49.558;8.674;2023-10-13T15:37:33;25.40;54.70
21770;DHT22;11046;49.558;8.674;2023-10-13T15:40:33;25.40;55.30
21770;DHT22;11046;49.558;8.674;2023-10-13T15:43:39;25.30;54.90
21770;DHT22;11046;49.558;8.674;2023-10-13T15:46:53;25.20;54.50
21770;DHT22;11046;49.558;8.674;2023-10-13T15:49:54;25.10;54.20
21770;DHT22;11046;49.558;8.674;2023-10-13T15:52:56;25.00;54.20
21770;DHT22;11046;49.558;8.674;2023-10-13T15:55:56;25.00;54.70
21770;DHT22;11046;49.558;8.674;2023-10-13T15:58:59;24.90;54.40
21770;DHT22;11046;49.558;8.674;2023-10-13T16:02:05;24.90;54.30
21770;DHT22;11046;49.558;8.674;2023-10-13T16:05:08;24.70;54.20
21770;DHT22;11046;49.558;8.674;2023-10-13T16:08:08;24.70;54.40
21770;DHT22;11046;49.558;8.674;2023-10-13T16:11:13;24.50;54.70
21770;DHT22;11046;49.558;8.674;2023-10-13T16:14:14;24.30;55.20
21770;DHT22;11046;49.558;8.674;2023-10-13T16:17:21;24.20;55.70
21770;DHT22;11046;49.558;8.674;2023-10-13T16:20:23;24.00;56.10
21770;DHT22;11046;49.558;8.674;2023-10-13T16:23:25;23.80;56.50
21770;DHT22;11046;49.558;8.674;2023-10-13T16:26:26;23.60;56.50
21770;DHT22;11046;49.558;8.674;2023-10-13T16:29:26;23.40;56.40
21770;DHT22;11046;49.558;8.674;2023-10-13T16:32:31;23.30;56.40
21770;DHT22;11046;49.558;8.674;2023-10-13T16:35:33;23.30;56.30
21770;DHT22;11046;49.558;8.674;2023-10-13T16:38:37;23.30;56.30
21770;DHT22;11046;49.558;8.674;2023-10-13T16:41:38;23.30;56.30
21770;DHT22;11046;49.558;8.674;2023-10-13T16:44:39;23.20;56.10
21770;DHT22;11046;49.558;8.674;2023-10-13T16:47:43;23.30;55.80
21770;DHT22;11046;49.558;8.674;2023-10-13T16:50:44;23.30;55.60
21770;DHT22;11046;49.558;8.674;2023-10-13T16:53:45;23.20;55.50
21770;DHT22;11046;49.558;8.674;2023-10-13T16:56:51;23.30;55.50
21770;DHT22;11046;49.558;8.674;2023-10-13T16:59:55;23.30;55.40
21770;DHT22;11046;49.558;8.674;2023-10-13T17:02:56;23.20;55.20
21770;DHT22;11046;49.558;8.674;2023-10-13T17:05:58;23.30;55.00
21770;DHT22;11046;49.558;8.674;2023-10-13T17:09:01;23.30;54.90
21770;DHT22;11046;49.558;8.674;2023-10-13T17:12:04;23.20;54.80
21770;DHT22;11046;49.558;8.674;2023-10-13T17:15:06;23.20;54.70
21770;DHT22;11046;49.558;8.674;2023-10-13T17:18:14;23.10;54.40
21770;DHT22;11046;49.558;8.674;2023-10-13T17:21:21;23.10;54.10
21770;DHT22;11046;49.558;8.674;2023-10-13T17:24:22;23.10;53.90
21770;DHT22;11046;49.558;8.674;2023-10-13T17:27:23;23.10;53.80
21770;DHT22;11046;49.558;8.674;2023-10-13T17:30:24;23.00;53.80
21770;DHT22;11046;49.558;8.674;2023-10-13T17:33:24;23.10;53.50
21770;DHT22;11046;49.558;8.674;2023-10-13T17:36:25;23.10;53.00
21770;DHT22;11046;49.558;8.674;2023-10-13T17:39:30;23.10;52.70
21770;DHT22;11046;49.558;8.674;2023-10-13T17:42:30;23.10;52.50
21770;DHT22;11046;49.558;8.674;2023-10-13T17:45:35;23.20;52.30
21770;DHT22;11046;49.558;8.674;2023-10-13T17:48:37;23.20;52.20
21770;DHT22;11046;49.558;8.674;2023-10-13T17:51:37;23.20;52.20
21770;DHT22;11046;49.558;8.674;2023-10-13T17:54:38;23.20;52.20
21770;DHT22;11046;49.558;8.674;2023-10-13T17:57:39;23.20;52.00
21770;DHT22;11046;49.558;8.674;2023-10-13T18:00:40;23.20;51.60
21770;DHT22;11046;49.558;8.674;2023-10-13T18:06:48;23.30;51.20
21770;DHT22;11046;49.558;8.674;2023-10-13T18:09:48;23.30;50.90
21770;DHT22;11046;49.558;8.674;2023-10-13T18:12:49;23.30;50.60
21770;DHT22;11046;49.558;8.674;2023-10-13T18:15:50;23.30;50.30
21770;DHT22;11046;49.558;8.674;2023-10-13T18:18:51;23.30;50.00
21770;DHT22;11046;49.558;8.674;2023-10-13T18:21:54;23.30;50.10
21770;DHT22;11046;49.558;8.674;2023-10-13T18:24:55;23.30;50.00
21770;DHT22;11046;49.558;8.674;2023-10-13T18:27:55;23.30;49.50
21770;DHT22;11046;49.558;8.674;2023-10-13T18:30:57;23.30;49.60
21770;DHT22;11046;49.558;8.674;2023-10-13T18:33:58;23.30;48.90
21770;DHT22;11046;49.558;8.674;2023-10-13T18:36:58;23.30;48.70
21770;DHT22;11046;49.558;8.674;2023-10-13T18:40:02;23.30;48.80
21770;DHT22;11046;49.558;8.674;2023-10-13T18:43:06;23.30;48.60
21770;DHT22;11046;49.558;8.674;2023-10-13T18:46:10;23.30;48.50
21770;DHT22;11046;49.558;8.674;2023-10-13T18:49:10;23.30;48.30
21770;DHT22;11046;49.558;8.674;2023-10-13T18:52:11;23.30;48.00
21770;DHT22;11046;49.558;8.674;2023-10-13T18:55:11;23.30;47.90
21770;DHT22;11046;49.558;8.674;2023-10-13T18:58:14;23.40;48.10
21770;DHT22;11046;49.558;8.674;2023-10-13T19:01:16;23.40;47.80
21770;DHT22;11046;49.558;8.674;2023-10-13T19:04:17;23.50;47.60
21770;DHT22;11046;49.558;8.674;2023-10-13T19:07:21;23.40;47.60
21770;DHT22;11046;49.558;8.674;2023-10-13T19:10:21;23.50;47.30
21770;DHT22;11046;49.558;8.674;2023-10-13T19:13:22;23.40;47.40
21770;DHT22;11046;49.558;8.674;2023-10-13T19:16:23;23.40;47.40
21770;DHT22;11046;49.558;8.674;2023-10-13T19:19:26;23.40;47.50
21770;DHT22;11046;49.558;8.674;2023-10-13T19:22:26;23.40;47.40
21770;DHT22;11046;49.558;8.674;2023-10-13T19:25:35;23.30;47.40
21770;DHT22;11046;49.558;8.674;2023-10-13T19:28:37;23.30;47.20
21770;DHT22;11046;49.558;8.674;2023-10-13T19:31:38;23.30;47.40
21770;DHT22;11046;49.558;8.674;2023-10-13T19:34:38;23.20;47.20
21770;DHT22;11046;49.558;8.674;2023-10-13T19:37:42;23.20;47.20
21770;DHT22;11046;49.558;8.674;2023-10-13T19:40:43;23.20;47.20
21770;DHT22;11046;49.558;8.674;2023-10-13T19:43:48;23.20;47.00
21770;DHT22;11046;49.558;8.674;2023-10-13T19:46:48;23.20;47.00
21770;DHT22;11046;49.558;8.674;2023-10-13T19:49:49;23.20;47.10
21770;DHT22;11046;49.558;8.674;2023-10-13T19:52:49;23.20;47.30
21770;DHT22;11046;49.558;8.674;2023-10-13T19:55:51;23.10;47.40
21770;DHT22;11046;49.558;8.674;2023-10-13T19:58:54;23.00;47.60
21770;DHT22;11046;49.558;8.674;2023-10-13T20:01:55;22.90;47.70
21770;DHT22;11046;49.558;8.674;2023-10-13T20:04:56;22.90;47.80
21770;DHT22;11046;49.558;8.674;2023-10-13T20:07:57;22.80;47.80
21770;DHT22;11046;49.558;8.674;2023-10-13T20:10:57;22.80;48.00
21770;DHT22;11046;49.558;8.674;2023-10-13T20:13:58;22.70;48.00
21770;DHT22;11046;49.558;8.674;2023-10-13T20:16:59;22.70;48.00
21770;DHT22;11046;49.558;8.674;2023-10-13T20:19:59;22.70;48.30
21770;DHT22;11046;49.558;8.674;2023-10-13T20:23:01;22.70;48.30
21770;DHT22;11046;49.558;8.674;2023-10-13T20:26:02;22.60;48.30
21770;DHT22;11046;49.558;8.674;2023-10-13T20:29:04;22.60;48.30
21770;DHT22;11046;49.558;8.674;2023-10-13T20:32:05;22.60;48.60
21770;DHT22;11046;49.558;8.674;2023-10-13T20:35:06;22.50;48.60
21770;DHT22;11046;49.558;8.674;2023-10-13T20:38:07;22.50;48.70
21770;DHT22;11046;49.558;8.674;2023-10-13T20:41:08;22.50;48.80
21770;DHT22;11046;49.558;8.674;2023-10-13T20:44:10;22.40;49.10
21770;DHT22;11046;49.558;8.674;2023-10-13T20:47:14;22.50;49.60
21770;DHT22;11046;49.558;8.674;2023-10-13T20:50:19;22.30;49.90
21770;DHT22;11046;49.558;8.674;2023-10-13T20:53:21;22.20;49.70
21770;DHT22;11046;49.558;8.674;2023-10-13T20:56:21;22.20;49.90
21770;DHT22;11046;49.558;8.674;2023-10-13T20:59:23;22.10;49.90
21770;DHT22;11046;49.558;8.674;2023-10-13T21:02:23;22.10;50.00
21770;DHT22;11046;49.558;8.674;2023-10-13T21:05:24;22.20;50.00
21770;DHT22;11046;49.558;8.674;2023-10-13T21:08:25;22.10;50.00
21770;DHT22;11046;49.558;8.674;2023-10-13T21:11:26;22.10;50.30
21770;DHT22;11046;49.558;8.674;2023-10-13T21:14:29;22.10;50.30
21770;DHT22;11046;49.558;8.674;2023-10-13T21:17:30;22.00;50.20
